createdAt,value
2022-10-09T00:00:01.667Z,12.40
2022-10-09T00:02:42.369Z,11.80
2022-10-09T00:05:13.165Z,11.60
2022-10-09T00:07:43.646Z,12.40
2022-10-09T00:10:14.088Z,11.50
2022-10-09T00:12:44.640Z,10.80
2022-10-09T00:15:15.393Z,12.60
2022-10-09T00:17:45.866Z,11.20
2022-10-09T00:20:16.857Z,11.20
2022-10-09T00:22:47.393Z,11.30
2022-10-09T00:25:18.255Z,13.60
2022-10-09T00:27:48.524Z,12.10
2022-10-09T00:30:18.950Z,11.10
2022-10-09T00:32:49.698Z,12.30
2022-10-09T00:35:20.582Z,11.50
2022-10-09T00:37:51.059Z,10.30
2022-10-09T00:40:21.429Z,9.70
2022-10-09T00:42:58.658Z,10.50
2022-10-09T00:45:30.287Z,8.80
2022-10-09T00:48:04.273Z,9.10
2022-10-09T00:50:43.027Z,10.90
2022-10-09T00:53:17.233Z,9.40
2022-10-09T00:55:48.056Z,8.60
2022-10-09T00:58:18.754Z,8.50
2022-10-09T01:00:49.573Z,10.70
2022-10-09T01:03:20.099Z,9.10
2022-10-09T01:06:00.090Z,8.90
2022-10-09T01:08:39.033Z,7.70
2022-10-09T01:11:15.351Z,7.90
2022-10-09T01:13:53.138Z,7.90
2022-10-09T01:16:28.317Z,8.80
2022-10-09T01:19:09.702Z,8.10
2022-10-09T01:21:47.645Z,8.20
2022-10-09T01:24:27.036Z,7.20
2022-10-09T01:27:06.585Z,8.10
2022-10-09T01:29:40.059Z,8.20
2022-10-09T01:32:14.189Z,8.90
2022-10-09T01:34:47.636Z,8.20
2022-10-09T01:37:20.860Z,8.50
2022-10-09T01:39:53.188Z,9.10
2022-10-09T01:42:26.486Z,7.70
2022-10-09T01:44:56.927Z,8.50
2022-10-09T01:47:27.874Z,7.90
2022-10-09T01:50:05.083Z,7.70
2022-10-09T01:52:44.824Z,7.90
2022-10-09T01:55:33.427Z,8.00
2022-10-09T01:58:11.118Z,7.20
2022-10-09T02:00:46.711Z,8.90
2022-10-09T02:03:19.641Z,8.50
2022-10-09T02:05:53.905Z,7.40
2022-10-09T02:08:25.594Z,8.00
2022-10-09T02:10:58.149Z,8.20
2022-10-09T02:13:29.223Z,8.00
2022-10-09T02:16:10.412Z,7.80
2022-10-09T02:18:45.447Z,8.30
2022-10-09T02:21:19.824Z,7.80
2022-10-09T02:23:52.282Z,9.50
2022-10-09T02:26:23.265Z,7.20
2022-10-09T02:28:54.282Z,8.20
2022-10-09T02:31:28.092Z,9.00
2022-10-09T02:34:00.238Z,8.70
2022-10-09T02:36:32.203Z,8.40
2022-10-09T02:39:03.753Z,8.80
2022-10-09T02:41:34.586Z,9.10
2022-10-09T02:44:06.430Z,8.40
2022-10-09T02:46:38.553Z,8.00
2022-10-09T02:49:09.497Z,9.30
2022-10-09T02:51:40.071Z,8.60
2022-10-09T02:54:11.637Z,9.20
2022-10-09T02:56:42.113Z,8.40
2022-10-09T02:59:12.620Z,9.50
2022-10-09T03:01:43.256Z,9.70
2022-10-09T03:04:13.981Z,8.30
2022-10-09T03:06:44.415Z,9.00
2022-10-09T03:09:15.112Z,9.80
2022-10-09T03:11:45.595Z,9.70
2022-10-09T03:14:16.108Z,9.40
2022-10-09T03:16:46.569Z,10.00
2022-10-09T03:19:17.142Z,9.60
2022-10-09T03:21:47.637Z,8.90
2022-10-09T03:24:18.121Z,9.10
2022-10-09T03:26:48.682Z,10.10
2022-10-09T03:29:19.042Z,10.40
2022-10-09T03:31:52.904Z,9.50
2022-10-09T03:34:23.885Z,9.60
2022-10-09T03:36:54.272Z,10.00
2022-10-09T03:39:24.850Z,9.90
2022-10-09T03:41:55.401Z,9.20
2022-10-09T03:44:25.913Z,10.20
2022-10-09T03:46:56.401Z,10.10
2022-10-09T03:49:27.062Z,10.30
2022-10-09T03:51:57.500Z,10.10
2022-10-09T03:54:28.010Z,9.90
2022-10-09T03:56:58.484Z,9.50
2022-10-09T03:59:28.920Z,9.70
2022-10-09T04:01:59.356Z,9.20
2022-10-09T04:04:29.730Z,10.00
2022-10-09T04:07:00.181Z,10.60
2022-10-09T04:09:30.838Z,9.30
2022-10-09T04:12:01.235Z,9.80
2022-10-09T04:14:31.712Z,9.00
2022-10-09T04:17:02.067Z,9.20
2022-10-09T04:19:32.542Z,9.40
2022-10-09T04:22:03.158Z,9.10
2022-10-09T04:24:33.672Z,9.00
2022-10-09T04:27:04.153Z,9.00
2022-10-09T04:29:34.555Z,8.60
2022-10-09T04:32:05.370Z,8.60
2022-10-09T04:34:35.888Z,9.50
2022-10-09T04:37:06.493Z,7.80
2022-10-09T04:39:36.896Z,9.00
2022-10-09T04:42:07.862Z,7.90
2022-10-09T04:44:38.341Z,8.10
2022-10-09T04:47:11.255Z,8.50
2022-10-09T04:49:42.150Z,8.90
2022-10-09T04:52:12.688Z,8.40
2022-10-09T04:54:43.210Z,8.60
2022-10-09T04:57:13.562Z,8.40
2022-10-09T04:59:44.146Z,8.40
2022-10-09T05:02:14.638Z,8.10
2022-10-09T05:04:45.109Z,8.70
2022-10-09T05:07:15.615Z,8.40
2022-10-09T05:09:46.097Z,7.80
2022-10-09T05:12:17.084Z,8.10
2022-10-09T05:14:47.526Z,7.80
2022-10-09T05:17:22.195Z,9.10
2022-10-09T05:19:53.903Z,7.90
2022-10-09T05:22:24.728Z,7.70
2022-10-09T05:24:55.206Z,8.00
2022-10-09T05:27:25.856Z,8.20
2022-10-09T05:29:56.250Z,8.60
2022-10-09T05:32:26.900Z,8.70
2022-10-09T05:34:57.435Z,7.90
2022-10-09T05:37:27.876Z,8.70
2022-10-09T05:39:58.426Z,9.10
2022-10-09T05:42:28.790Z,9.00
2022-10-09T05:44:59.189Z,8.20
2022-10-09T05:47:30.621Z,8.10
2022-10-09T05:52:29.951Z,7.80
2022-10-09T05:55:00.735Z,7.40
2022-10-09T05:57:31.093Z,8.10
2022-10-09T06:00:01.467Z,7.70
2022-10-09T06:02:31.964Z,7.30
2022-10-09T06:05:02.374Z,7.60
2022-10-09T06:07:33.307Z,8.00
2022-10-09T06:10:03.919Z,7.90
2022-10-09T06:12:34.318Z,7.50
2022-10-09T06:15:05.030Z,7.10
2022-10-09T06:17:36.391Z,7.80
2022-10-09T06:22:36.329Z,8.20
2022-10-09T06:25:07.966Z,7.60
2022-10-09T06:27:38.374Z,8.00
2022-10-09T06:30:11.022Z,7.70
2022-10-09T06:32:41.558Z,6.90
2022-10-09T06:35:12.410Z,7.70
2022-10-09T06:37:42.838Z,8.00
2022-10-09T06:40:13.527Z,7.70
2022-10-09T06:42:44.011Z,7.80
2022-10-09T06:45:20.513Z,7.60
2022-10-09T06:47:51.083Z,7.10
2022-10-09T06:50:21.635Z,7.50
2022-10-09T06:52:52.160Z,7.10
2022-10-09T06:55:26.464Z,7.50
2022-10-09T06:57:59.565Z,8.10
2022-10-09T07:00:30.083Z,7.70
2022-10-09T07:03:00.627Z,7.10
2022-10-09T07:05:31.108Z,8.00
2022-10-09T07:08:01.628Z,7.40
2022-10-09T07:10:32.031Z,6.70
2022-10-09T07:13:02.544Z,7.70
2022-10-09T07:15:33.082Z,7.80
2022-10-09T07:18:05.100Z,8.00
2022-10-09T07:20:38.452Z,7.40
2022-10-09T07:23:08.951Z,6.90
2022-10-09T07:25:41.186Z,8.60
2022-10-09T07:28:11.632Z,7.30
2022-10-09T07:30:42.270Z,7.00
2022-10-09T07:33:12.788Z,7.20
2022-10-09T07:35:43.241Z,7.70
2022-10-09T07:38:13.565Z,8.00
2022-10-09T07:40:43.977Z,7.70
2022-10-09T07:43:14.973Z,7.30
2022-10-09T07:45:46.357Z,6.30
2022-10-09T07:50:45.604Z,7.80
2022-10-09T07:53:16.127Z,7.40
2022-10-09T07:55:49.685Z,7.70
2022-10-09T07:58:20.112Z,6.60
2022-10-09T08:00:52.479Z,6.90
2022-10-09T08:03:23.129Z,7.50
2022-10-09T08:05:58.516Z,6.50
2022-10-09T08:08:29.100Z,6.50
2022-10-09T08:10:59.817Z,5.90
2022-10-09T08:13:30.259Z,5.80
2022-10-09T08:16:01.647Z,6.50
2022-10-09T08:21:26.960Z,5.90
2022-10-09T08:23:59.062Z,6.50
2022-10-09T08:26:31.604Z,6.10
2022-10-09T08:29:03.695Z,7.10
2022-10-09T08:31:35.005Z,7.40
2022-10-09T08:36:35.667Z,6.60
2022-10-09T08:39:06.679Z,5.10
2022-10-09T08:41:48.493Z,5.00
2022-10-09T08:44:23.586Z,5.00
2022-10-09T08:47:01.437Z,4.50
2022-10-09T08:49:41.509Z,5.00
2022-10-09T08:52:29.370Z,4.50
2022-10-09T08:55:05.336Z,4.70
2022-10-09T08:57:37.052Z,4.40
2022-10-09T09:00:17.962Z,4.30
2022-10-09T09:03:06.501Z,4.20
2022-10-09T09:05:46.443Z,4.70
2022-10-09T09:08:29.096Z,4.40
2022-10-09T09:11:10.932Z,4.00
2022-10-09T09:13:50.939Z,4.60
2022-10-09T09:16:29.688Z,4.20
2022-10-09T09:19:17.667Z,4.00
2022-10-09T09:21:51.255Z,4.00
2022-10-09T09:24:24.361Z,3.80
2022-10-09T09:27:03.030Z,4.00
2022-10-09T09:29:40.702Z,4.30
2022-10-09T09:32:21.675Z,3.90
2022-10-09T09:34:55.059Z,3.80
2022-10-09T09:37:26.136Z,3.70
2022-10-09T09:42:47.931Z,3.30
2022-10-09T09:45:23.863Z,3.20
2022-10-09T09:47:58.927Z,3.30
2022-10-09T09:50:48.678Z,3.20
2022-10-09T09:53:32.882Z,3.20
2022-10-09T09:56:03.475Z,3.50
2022-10-09T09:58:39.394Z,3.40
2022-10-09T10:01:20.605Z,3.50
2022-10-09T10:03:53.036Z,3.60
2022-10-09T10:06:29.915Z,3.30
2022-10-09T10:09:06.192Z,3.70
2022-10-09T10:11:37.467Z,4.00
2022-10-09T10:16:41.197Z,3.10
2022-10-09T10:19:23.395Z,3.10
2022-10-09T10:22:00.576Z,3.70
2022-10-09T10:24:36.276Z,4.20
2022-10-09T10:27:14.887Z,3.20
2022-10-09T10:29:47.907Z,3.40
2022-10-09T10:32:24.538Z,3.00
2022-10-09T10:34:58.705Z,3.40
2022-10-09T10:37:34.005Z,3.40
2022-10-09T10:40:11.654Z,3.10
2022-10-09T10:42:50.878Z,3.20
2022-10-09T10:45:25.490Z,3.10
2022-10-09T10:47:59.458Z,3.60
2022-10-09T10:50:37.301Z,3.50
2022-10-09T10:53:18.959Z,3.20
2022-10-09T10:55:56.071Z,3.20
2022-10-09T10:58:31.445Z,3.50
2022-10-09T11:01:17.425Z,3.80
2022-10-09T11:04:05.276Z,3.10
2022-10-09T11:06:43.121Z,3.60
2022-10-09T11:09:19.482Z,2.90
2022-10-09T11:11:56.387Z,3.50
2022-10-09T11:14:42.925Z,3.30
2022-10-09T11:17:26.542Z,3.40
2022-10-09T11:20:10.512Z,3.20
2022-10-09T11:22:56.687Z,3.30
2022-10-09T11:25:36.164Z,3.60
2022-10-09T11:28:11.965Z,3.50
2022-10-09T11:30:49.445Z,3.00
2022-10-09T11:33:34.065Z,3.00
2022-10-09T11:36:11.515Z,3.40
2022-10-09T11:38:45.581Z,3.00
2022-10-09T11:41:16.626Z,3.40
2022-10-09T11:44:02.321Z,4.10
2022-10-09T11:46:43.601Z,2.60
2022-10-09T11:51:54.830Z,2.90
2022-10-09T11:54:27.572Z,2.70
2022-10-09T11:57:00.771Z,2.90
2022-10-09T11:59:36.128Z,2.90
2022-10-09T12:02:27.032Z,3.40
2022-10-09T12:05:00.884Z,3.20
2022-10-09T12:10:33.546Z,3.40
2022-10-09T12:13:06.141Z,3.30
2022-10-09T12:15:54.914Z,3.30
2022-10-09T12:18:30.143Z,3.40
2022-10-09T12:21:05.944Z,4.00
2022-10-09T12:23:40.873Z,3.80
2022-10-09T12:26:14.146Z,3.60
2022-10-09T12:28:49.835Z,3.40
2022-10-09T12:31:27.939Z,3.50
2022-10-09T12:34:02.407Z,4.10
2022-10-09T12:36:34.501Z,4.00
2022-10-09T12:39:20.673Z,4.00
2022-10-09T12:41:56.179Z,3.70
2022-10-09T12:44:36.843Z,4.20
2022-10-09T12:47:21.326Z,3.90
2022-10-09T12:50:05.236Z,4.10
2022-10-09T12:52:43.483Z,3.50
2022-10-09T12:55:29.155Z,4.50
2022-10-09T12:58:07.404Z,3.60
2022-10-09T13:00:38.860Z,3.80
2022-10-09T13:03:21.129Z,4.40
2022-10-09T13:05:53.425Z,4.30
2022-10-09T13:08:31.123Z,3.80
2022-10-09T13:11:19.357Z,4.00
2022-10-09T13:13:54.036Z,3.80
2022-10-09T13:16:25.801Z,4.20
2022-10-09T13:19:01.295Z,4.40
2022-10-09T13:21:35.295Z,4.40
2022-10-09T13:24:13.795Z,3.60
2022-10-09T13:26:46.145Z,3.90
2022-10-09T13:29:16.830Z,3.80
2022-10-09T13:31:47.516Z,3.90
2022-10-09T13:36:49.180Z,3.70
2022-10-09T13:39:19.631Z,3.60
2022-10-09T13:41:52.961Z,3.90
2022-10-09T13:44:23.593Z,3.70
2022-10-09T13:46:54.346Z,4.40
2022-10-09T13:51:58.627Z,3.80
2022-10-09T13:54:31.955Z,3.90
2022-10-09T13:57:12.060Z,4.20
2022-10-09T13:59:43.142Z,3.70
2022-10-09T14:02:14.236Z,3.90
2022-10-09T14:04:45.639Z,3.40
2022-10-09T14:07:16.270Z,3.60
2022-10-09T14:09:46.733Z,3.50
2022-10-09T14:12:17.462Z,3.80
2022-10-09T14:14:53.720Z,3.50
2022-10-09T14:17:24.261Z,3.40
2022-10-09T14:19:54.886Z,4.20
2022-10-09T14:22:25.473Z,3.50
2022-10-09T14:24:56.187Z,3.20
2022-10-09T14:29:57.307Z,3.50
2022-10-09T14:32:27.952Z,3.60
2022-10-09T14:35:00.166Z,3.40
2022-10-09T14:37:40.970Z,4.40
2022-10-09T14:40:13.768Z,3.30
2022-10-09T14:42:44.115Z,3.90
2022-10-09T14:45:14.964Z,3.60
2022-10-09T14:50:14.097Z,3.60
2022-10-09T14:52:44.682Z,3.30
2022-10-09T14:55:14.976Z,3.30
2022-10-09T14:57:45.488Z,3.70
2022-10-09T15:00:17.597Z,3.60
2022-10-09T15:02:47.928Z,3.70
2022-10-09T15:05:18.280Z,3.70
2022-10-09T15:07:48.890Z,3.60
2022-10-09T15:12:48.472Z,3.30
2022-10-09T15:15:19.001Z,3.10
2022-10-09T15:17:49.682Z,3.60
2022-10-09T15:20:20.458Z,3.50
2022-10-09T15:22:50.837Z,3.30
2022-10-09T15:25:25.216Z,3.60
2022-10-09T15:27:55.902Z,3.60
2022-10-09T15:30:26.830Z,3.00
2022-10-09T15:32:57.667Z,3.20
2022-10-09T15:37:56.770Z,3.30
2022-10-09T15:40:29.528Z,3.70
2022-10-09T15:42:59.888Z,3.00
2022-10-09T15:45:30.203Z,3.40
2022-10-09T15:48:00.495Z,3.20
2022-10-09T15:50:31.095Z,3.40
2022-10-09T15:53:01.429Z,3.40
2022-10-09T15:55:31.730Z,3.30
2022-10-09T15:58:02.151Z,4.00
2022-10-09T16:00:35.408Z,4.00
2022-10-09T16:03:05.864Z,3.80
2022-10-09T16:05:41.112Z,3.40
2022-10-09T16:08:12.429Z,4.20
2022-10-09T16:10:49.018Z,4.30
2022-10-09T16:13:20.609Z,4.10
2022-10-09T16:15:51.485Z,3.70
2022-10-09T16:18:24.267Z,4.20
2022-10-09T16:20:54.758Z,4.00
2022-10-09T16:23:25.069Z,3.70
2022-10-09T16:26:01.454Z,3.90
2022-10-09T16:28:32.638Z,3.90
2022-10-09T16:33:32.307Z,3.50
2022-10-09T16:36:14.020Z,4.00
2022-10-09T16:38:46.020Z,4.00
2022-10-09T16:41:19.629Z,3.60
2022-10-09T16:43:52.317Z,4.00
2022-10-09T16:46:25.351Z,3.70
2022-10-09T16:48:58.002Z,5.20
2022-10-09T16:51:30.447Z,4.90
2022-10-09T16:54:03.125Z,5.30
2022-10-09T16:56:36.232Z,4.90
2022-10-09T16:59:09.134Z,4.70
2022-10-09T17:01:43.762Z,5.10
2022-10-09T17:04:14.750Z,6.40
2022-10-09T17:06:46.557Z,5.60
2022-10-09T17:09:17.589Z,5.60
2022-10-09T17:11:51.534Z,8.30
2022-10-09T17:14:26.555Z,6.20
2022-10-09T17:17:04.529Z,5.50
2022-10-09T17:19:35.030Z,4.90
2022-10-09T17:22:06.479Z,4.60
2022-10-09T17:24:37.196Z,5.50
2022-10-09T17:27:09.831Z,5.00
2022-10-09T17:29:40.297Z,4.80
2022-10-09T17:32:10.599Z,6.20
2022-10-09T17:34:45.731Z,5.20
2022-10-09T17:37:16.070Z,5.20
2022-10-09T17:39:51.843Z,5.50
2022-10-09T17:42:22.853Z,6.20
2022-10-09T17:44:53.372Z,6.50
2022-10-09T17:47:23.800Z,6.80
2022-10-09T17:49:54.669Z,6.60
2022-10-09T17:52:25.149Z,8.00
2022-10-09T17:54:55.819Z,8.90
2022-10-09T17:57:26.255Z,9.50
2022-10-09T17:59:56.675Z,9.20
2022-10-09T18:02:27.086Z,9.70
2022-10-09T18:04:58.201Z,9.10
2022-10-09T18:07:29.526Z,8.60
2022-10-09T18:09:59.875Z,9.10
2022-10-09T18:12:30.400Z,9.10
2022-10-09T18:15:00.949Z,8.60
2022-10-09T18:17:33.437Z,9.40
2022-10-09T18:20:04.168Z,10.70
2022-10-09T18:22:35.834Z,9.40
2022-10-09T18:25:07.491Z,8.60
2022-10-09T18:27:38.061Z,8.40
2022-10-09T18:30:10.603Z,8.40
2022-10-09T18:32:41.435Z,8.80
2022-10-09T18:35:12.217Z,8.40
2022-10-09T18:37:42.702Z,11.30
2022-10-09T18:40:14.136Z,10.20
2022-10-09T18:42:45.347Z,8.90
2022-10-09T18:45:17.354Z,11.50
2022-10-09T18:47:48.130Z,9.60
2022-10-09T18:50:19.746Z,9.50
2022-10-09T18:52:50.972Z,9.80
2022-10-09T18:57:51.599Z,8.70
2022-10-09T19:00:22.220Z,8.70
2022-10-09T19:02:52.653Z,10.60
2022-10-09T19:05:23.125Z,8.40
2022-10-09T19:07:55.705Z,6.90
2022-10-09T19:10:26.271Z,5.90
2022-10-09T19:12:56.627Z,6.60
2022-10-09T19:15:27.138Z,6.40
2022-10-09T19:17:57.686Z,6.70
2022-10-09T19:20:29.268Z,7.30
2022-10-09T19:22:59.851Z,7.50
2022-10-09T19:25:30.256Z,6.40
2022-10-09T19:28:00.679Z,8.00
2022-10-09T19:30:31.368Z,6.40
2022-10-09T19:33:02.080Z,6.80
2022-10-09T19:35:32.824Z,9.20
2022-10-09T19:38:04.421Z,7.60
2022-10-09T19:40:36.984Z,10.30
2022-10-09T19:43:07.791Z,9.00
2022-10-09T19:45:38.719Z,8.70
2022-10-09T19:48:10.284Z,12.70
2022-10-09T19:53:14.939Z,9.30
2022-10-09T19:55:45.434Z,8.60
2022-10-09T19:58:17.900Z,10.60
2022-10-09T20:00:48.722Z,7.70
2022-10-09T20:03:23.435Z,7.20
2022-10-09T20:05:54.552Z,8.10
2022-10-09T20:08:31.305Z,8.60
2022-10-09T20:11:03.523Z,7.20
2022-10-09T20:13:35.253Z,6.60
2022-10-09T20:16:10.037Z,6.50
2022-10-09T20:18:42.556Z,6.30
2022-10-09T20:21:14.986Z,6.40
2022-10-09T20:23:45.814Z,5.60
2022-10-09T20:26:18.272Z,4.90
2022-10-09T20:28:50.083Z,5.10
2022-10-09T20:31:23.765Z,5.80
2022-10-09T20:33:56.246Z,5.40
2022-10-09T20:36:31.200Z,5.50
2022-10-09T20:39:03.663Z,4.70
2022-10-09T20:41:37.208Z,4.30
2022-10-09T20:44:25.163Z,5.20
2022-10-09T20:46:56.912Z,4.80
2022-10-09T20:49:27.652Z,4.40
2022-10-09T20:51:58.572Z,4.20
2022-10-09T20:54:30.430Z,4.40
2022-10-09T20:57:01.129Z,4.70
2022-10-09T20:59:31.932Z,4.70
2022-10-09T21:02:02.597Z,4.20
2022-10-09T21:04:33.329Z,4.20
2022-10-09T21:07:03.899Z,3.70
2022-10-09T21:09:34.635Z,5.00
2022-10-09T21:12:06.962Z,4.50
2022-10-09T21:14:39.343Z,4.60
2022-10-09T21:17:10.094Z,5.00
2022-10-09T21:19:41.048Z,4.60
2022-10-09T21:22:11.603Z,4.60
2022-10-09T21:24:42.147Z,3.90
2022-10-09T21:27:12.801Z,3.90
2022-10-09T21:29:43.516Z,4.30
2022-10-09T21:32:13.955Z,4.00
2022-10-09T21:34:45.374Z,4.30
2022-10-09T21:39:53.383Z,4.10
2022-10-09T21:42:24.058Z,4.00
2022-10-09T21:44:54.708Z,4.20
2022-10-09T21:47:25.504Z,4.00
2022-10-09T21:49:56.407Z,4.30
2022-10-09T21:52:27.108Z,4.40
2022-10-09T21:54:57.796Z,4.20
2022-10-09T21:57:28.429Z,4.50
2022-10-09T21:59:59.271Z,4.50
2022-10-09T22:02:29.856Z,4.00
2022-10-09T22:05:00.492Z,4.00
2022-10-09T22:07:33.107Z,4.60
2022-10-09T22:10:04.599Z,4.50
2022-10-09T22:12:35.764Z,4.10
2022-10-09T22:15:07.412Z,4.00
2022-10-09T22:17:38.173Z,4.70
2022-10-09T22:20:09.933Z,4.60
2022-10-09T22:22:40.634Z,3.80
2022-10-09T22:25:11.950Z,4.40
2022-10-09T22:30:13.960Z,4.30
2022-10-09T22:32:44.656Z,4.30
2022-10-09T22:35:15.514Z,4.80
2022-10-09T22:37:46.180Z,4.50
2022-10-09T22:40:17.100Z,4.90
2022-10-09T22:42:48.246Z,4.60
2022-10-09T22:45:19.755Z,4.40
2022-10-09T22:47:50.606Z,4.40
2022-10-09T22:50:21.495Z,4.30
2022-10-09T22:52:52.996Z,4.30
2022-10-09T22:55:30.395Z,4.90
2022-10-09T22:58:01.086Z,4.00
2022-10-09T23:00:31.629Z,4.00
2022-10-09T23:03:02.377Z,4.70
2022-10-09T23:05:36.982Z,5.00
2022-10-09T23:08:08.053Z,4.50
2022-10-09T23:10:46.958Z,4.60
2022-10-09T23:13:17.605Z,4.10
2022-10-09T23:15:48.309Z,4.60
2022-10-09T23:18:19.020Z,4.40
2022-10-09T23:20:49.646Z,4.20
2022-10-09T23:23:20.314Z,4.70
2022-10-09T23:26:16.325Z,4.30
2022-10-09T23:28:53.932Z,4.90
2022-10-09T23:31:25.486Z,4.30
2022-10-09T23:33:56.268Z,4.60
2022-10-09T23:36:28.852Z,4.30
2022-10-09T23:39:00.312Z,4.20
2022-10-09T23:44:00.602Z,4.80
2022-10-09T23:46:34.044Z,4.60
2022-10-09T23:49:04.937Z,4.70
2022-10-09T23:51:35.492Z,5.40
2022-10-09T23:54:07.192Z,5.30
2022-10-09T23:56:38.259Z,4.70
2022-10-09T23:59:09.585Z,4.60
